Terminal Aerodrome Forecast
Issued by NWS Los Angeles, CA

Home | Current Version | Previous Version | Text Only | Print | Product List | Glossary On
Versions: 1 2 3 4 5 6 7 8 9 10 11 12 13 14 15 16
000
FTUS46 KLOX 271100
TAFSMX
TAF
KSMX 271132Z 2712/2812 VRB03KT 1/4SM FG VV003
     FM271700 VRB03KT 2SM BR BKN003
     FM271800 31010KT P6SM SCT005
     FM272100 30020G28KT P6SM SCT025 BKN060
     FM280300 30010KT P6SM BKN025
     FM280800 VRB03KT P6SM SCT015 OVC025 PROB30 2809/2812 5SM -RA BR
      OVC015=

USA.gov is the U.S. government's official web portal to all federal, state and local government web resources and services.